sensor_id;sensor_type;location;lat;lon;timestamp;temperature;humidity
11511;DHT22;5812;48.864;9.190;2022-10-31T00:02:07;10.20;99.90
11511;DHT22;5812;48.864;9.190;2022-10-31T00:04:33;10.10;99.90
11511;DHT22;5812;48.864;9.190;2022-10-31T00:06:59;10.00;99.90
11511;DHT22;5812;48.864;9.190;2022-10-31T00:09:24;10.00;99.90
11511;DHT22;5812;48.864;9.190;2022-10-31T00:11:50;10.10;99.90
11511;DHT22;5812;48.864;9.190;2022-10-31T00:14:15;10.20;99.90
11511;DHT22;5812;48.864;9.190;2022-10-31T00:16:41;10.20;99.90
11511;DHT22;5812;48.864;9.190;2022-10-31T00:19:07;10.10;99.90
11511;DHT22;5812;48.864;9.190;2022-10-31T00:21:33;10.00;99.90
11511;DHT22;5812;48.864;9.190;2022-10-31T00:24:00;9.90;99.90
11511;DHT22;5812;48.864;9.190;2022-10-31T00:26:30;9.80;99.90
11511;DHT22;5812;48.864;9.190;2022-10-31T00:28:57;9.80;99.90
11511;DHT22;5812;48.864;9.190;2022-10-31T00:31:23;9.80;99.90
11511;DHT22;5812;48.864;9.190;2022-10-31T00:33:49;9.70;99.90
11511;DHT22;5812;48.864;9.190;2022-10-31T00:36:16;9.80;99.90
11511;DHT22;5812;48.864;9.190;2022-10-31T00:38:44;9.80;99.90
11511;DHT22;5812;48.864;9.190;2022-10-31T00:41:10;9.70;99.90
11511;DHT22;5812;48.864;9.190;2022-10-31T00:43:36;9.70;99.90
11511;DHT22;5812;48.864;9.190;2022-10-31T00:46:01;9.70;99.90
11511;DHT22;5812;48.864;9.190;2022-10-31T00:48:27;9.70;99.90
11511;DHT22;5812;48.864;9.190;2022-10-31T00:50:53;9.70;99.90
11511;DHT22;5812;48.864;9.190;2022-10-31T00:53:19;9.70;99.90
11511;DHT22;5812;48.864;9.190;2022-10-31T00:55:44;9.50;99.90
11511;DHT22;5812;48.864;9.190;2022-10-31T00:58:10;9.50;99.90
11511;DHT22;5812;48.864;9.190;2022-10-31T01:00:35;9.70;99.90
11511;DHT22;5812;48.864;9.190;2022-10-31T01:03:01;9.50;99.90
11511;DHT22;5812;48.864;9.190;2022-10-31T01:05:26;9.50;99.90
11511;DHT22;5812;48.864;9.190;2022-10-31T01:07:52;9.50;99.90
11511;DHT22;5812;48.864;9.190;2022-10-31T01:10:18;9.40;99.90
11511;DHT22;5812;48.864;9.190;2022-10-31T01:12:45;9.40;99.90
11511;DHT22;5812;48.864;9.190;2022-10-31T01:15:13;9.40;99.90
11511;DHT22;5812;48.864;9.190;2022-10-31T01:17:39;9.40;99.90
11511;DHT22;5812;48.864;9.190;2022-10-31T01:20:13;9.40;99.90
11511;DHT22;5812;48.864;9.190;2022-10-31T01:22:38;9.50;99.90
11511;DHT22;5812;48.864;9.190;2022-10-31T01:25:05;9.40;99.90
11511;DHT22;5812;48.864;9.190;2022-10-31T01:27:31;9.30;99.90
11511;DHT22;5812;48.864;9.190;2022-10-31T01:29:57;9.40;99.90
11511;DHT22;5812;48.864;9.190;2022-10-31T01:32:23;9.30;99.90
11511;DHT22;5812;48.864;9.190;2022-10-31T01:34:49;9.40;99.90
11511;DHT22;5812;48.864;9.190;2022-10-31T01:37:14;9.50;99.90
11511;DHT22;5812;48.864;9.190;2022-10-31T01:39:40;9.50;99.90
11511;DHT22;5812;48.864;9.190;2022-10-31T01:42:05;9.40;99.90
11511;DHT22;5812;48.864;9.190;2022-10-31T01:46:58;9.30;99.90
11511;DHT22;5812;48.864;9.190;2022-10-31T01:49:42;9.40;99.90
11511;DHT22;5812;48.864;9.190;2022-10-31T01:52:20;9.40;99.90
11511;DHT22;5812;48.864;9.190;2022-10-31T01:55:32;9.50;99.90
11511;DHT22;5812;48.864;9.190;2022-10-31T01:57:41;9.50;99.90
11511;DHT22;5812;48.864;9.190;2022-10-31T02:00:09;9.50;99.90
11511;DHT22;5812;48.864;9.190;2022-10-31T02:02:35;9.50;99.90
11511;DHT22;5812;48.864;9.190;2022-10-31T02:05:10;9.50;99.90
11511;DHT22;5812;48.864;9.190;2022-10-31T02:10:07;9.50;99.90
11511;DHT22;5812;48.864;9.190;2022-10-31T02:12:34;9.50;99.90
11511;DHT22;5812;48.864;9.190;2022-10-31T02:15:02;9.40;99.90
11511;DHT22;5812;48.864;9.190;2022-10-31T02:17:29;9.50;99.90
11511;DHT22;5812;48.864;9.190;2022-10-31T02:22:43;9.50;99.90
11511;DHT22;5812;48.864;9.190;2022-10-31T02:31:45;9.40;99.90
11511;DHT22;5812;48.864;9.190;2022-10-31T02:34:34;9.40;99.90
11511;DHT22;5812;48.864;9.190;2022-10-31T02:37:12;9.40;99.90
11511;DHT22;5812;48.864;9.190;2022-10-31T02:40:10;9.30;99.90
11511;DHT22;5812;48.864;9.190;2022-10-31T02:42:47;9.30;99.90
11511;DHT22;5812;48.864;9.190;2022-10-31T02:48:10;9.30;99.90
11511;DHT22;5812;48.864;9.190;2022-10-31T02:50:40;9.20;99.90
11511;DHT22;5812;48.864;9.190;2022-10-31T02:53:07;9.10;99.90
11511;DHT22;5812;48.864;9.190;2022-10-31T02:58:11;9.10;99.90
11511;DHT22;5812;48.864;9.190;2022-10-31T03:03:17;9.10;99.90
11511;DHT22;5812;48.864;9.190;2022-10-31T03:05:49;9.10;99.90
11511;DHT22;5812;48.864;9.190;2022-10-31T03:11:04;9.10;99.90
11511;DHT22;5812;48.864;9.190;2022-10-31T03:13:39;9.10;99.90
11511;DHT22;5812;48.864;9.190;2022-10-31T03:16:28;9.10;99.90
11511;DHT22;5812;48.864;9.190;2022-10-31T03:19:05;9.00;99.90
11511;DHT22;5812;48.864;9.190;2022-10-31T03:21:51;9.00;99.90
11511;DHT22;5812;48.864;9.190;2022-10-31T03:24:21;9.00;99.90
11511;DHT22;5812;48.864;9.190;2022-10-31T03:26:51;9.00;99.90
11511;DHT22;5812;48.864;9.190;2022-10-31T03:29:20;9.00;99.90
11511;DHT22;5812;48.864;9.190;2022-10-31T03:32:27;8.80;99.90
11511;DHT22;5812;48.864;9.190;2022-10-31T03:34:56;9.00;99.90
11511;DHT22;5812;48.864;9.190;2022-10-31T03:37:24;9.10;99.90
11511;DHT22;5812;48.864;9.190;2022-10-31T03:39:51;8.90;99.90
11511;DHT22;5812;48.864;9.190;2022-10-31T03:42:22;8.80;99.90
11511;DHT22;5812;48.864;9.190;2022-10-31T03:44:56;8.90;99.90
11511;DHT22;5812;48.864;9.190;2022-10-31T03:47:23;9.00;99.90
11511;DHT22;5812;48.864;9.190;2022-10-31T03:49:49;9.00;99.90
11511;DHT22;5812;48.864;9.190;2022-10-31T03:52:29;9.00;99.90
11511;DHT22;5812;48.864;9.190;2022-10-31T03:55:05;9.10;99.90
11511;DHT22;5812;48.864;9.190;2022-10-31T04:00:19;8.90;99.90
11511;DHT22;5812;48.864;9.190;2022-10-31T04:05:46;8.90;99.90
11511;DHT22;5812;48.864;9.190;2022-10-31T04:08:15;8.90;99.90
11511;DHT22;5812;48.864;9.190;2022-10-31T04:10:44;8.90;99.90
11511;DHT22;5812;48.864;9.190;2022-10-31T04:13:16;8.70;99.90
11511;DHT22;5812;48.864;9.190;2022-10-31T04:15:43;8.70;99.90
11511;DHT22;5812;48.864;9.190;2022-10-31T04:18:10;8.60;99.90
11511;DHT22;5812;48.864;9.190;2022-10-31T04:20:40;8.80;99.90
11511;DHT22;5812;48.864;9.190;2022-10-31T04:23:17;8.80;99.90
11511;DHT22;5812;48.864;9.190;2022-10-31T04:25:43;8.70;99.90
11511;DHT22;5812;48.864;9.190;2022-10-31T04:28:09;8.60;99.90
11511;DHT22;5812;48.864;9.190;2022-10-31T04:30:34;8.60;99.90
11511;DHT22;5812;48.864;9.190;2022-10-31T04:33:00;8.70;99.90
11511;DHT22;5812;48.864;9.190;2022-10-31T04:35:26;8.80;99.90
11511;DHT22;5812;48.864;9.190;2022-10-31T04:37:51;8.80;99.90
11511;DHT22;5812;48.864;9.190;2022-10-31T04:40:17;8.70;99.90
11511;DHT22;5812;48.864;9.190;2022-10-31T04:42:42;8.70;99.90
11511;DHT22;5812;48.864;9.190;2022-10-31T04:45:08;8.70;99.90
11511;DHT22;5812;48.864;9.190;2022-10-31T04:47:34;8.70;99.90
11511;DHT22;5812;48.864;9.190;2022-10-31T04:50:00;8.60;99.90
11511;DHT22;5812;48.864;9.190;2022-10-31T04:52:25;8.60;99.90
11511;DHT22;5812;48.864;9.190;2022-10-31T04:54:51;8.60;99.90
11511;DHT22;5812;48.864;9.190;2022-10-31T04:57:16;8.60;99.90
11511;DHT22;5812;48.864;9.190;2022-10-31T04:59:42;8.60;99.90
11511;DHT22;5812;48.864;9.190;2022-10-31T05:02:07;8.60;99.90
11511;DHT22;5812;48.864;9.190;2022-10-31T05:04:33;8.50;99.90
11511;DHT22;5812;48.864;9.190;2022-10-31T05:06:59;8.50;99.90
11511;DHT22;5812;48.864;9.190;2022-10-31T05:09:24;8.40;99.90
11511;DHT22;5812;48.864;9.190;2022-10-31T05:11:50;8.30;99.90
11511;DHT22;5812;48.864;9.190;2022-10-31T05:14:15;8.40;99.90
11511;DHT22;5812;48.864;9.190;2022-10-31T05:16:41;8.40;99.90
11511;DHT22;5812;48.864;9.190;2022-10-31T05:19:06;8.40;99.90
11511;DHT22;5812;48.864;9.190;2022-10-31T05:21:32;8.40;99.90
11511;DHT22;5812;48.864;9.190;2022-10-31T05:23:57;8.30;99.90
11511;DHT22;5812;48.864;9.190;2022-10-31T05:26:23;8.40;99.90
11511;DHT22;5812;48.864;9.190;2022-10-31T05:28:49;8.50;99.90
11511;DHT22;5812;48.864;9.190;2022-10-31T05:31:14;8.50;99.90
11511;DHT22;5812;48.864;9.190;2022-10-31T05:33:40;8.40;99.90
11511;DHT22;5812;48.864;9.190;2022-10-31T05:36:05;8.40;99.90
11511;DHT22;5812;48.864;9.190;2022-10-31T05:38:31;8.30;99.90
11511;DHT22;5812;48.864;9.190;2022-10-31T05:40:57;8.20;99.90
11511;DHT22;5812;48.864;9.190;2022-10-31T05:43:26;8.10;99.90
11511;DHT22;5812;48.864;9.190;2022-10-31T05:45:56;8.10;99.90
11511;DHT22;5812;48.864;9.190;2022-10-31T05:48:22;8.00;99.90
11511;DHT22;5812;48.864;9.190;2022-10-31T05:50:48;8.20;99.90
11511;DHT22;5812;48.864;9.190;2022-10-31T05:53:14;8.20;99.90
11511;DHT22;5812;48.864;9.190;2022-10-31T05:55:41;8.20;99.90
11511;DHT22;5812;48.864;9.190;2022-10-31T05:58:07;8.20;99.90
11511;DHT22;5812;48.864;9.190;2022-10-31T06:00:32;8.20;99.90
11511;DHT22;5812;48.864;9.190;2022-10-31T06:03:02;8.20;99.90
11511;DHT22;5812;48.864;9.190;2022-10-31T06:05:28;8.20;99.90
11511;DHT22;5812;48.864;9.190;2022-10-31T06:07:54;8.30;99.90
11511;DHT22;5812;48.864;9.190;2022-10-31T06:10:20;8.40;99.90
11511;DHT22;5812;48.864;9.190;2022-10-31T06:12:46;8.40;99.90
11511;DHT22;5812;48.864;9.190;2022-10-31T06:15:12;8.30;99.90
11511;DHT22;5812;48.864;9.190;2022-10-31T06:17:38;8.30;99.90
11511;DHT22;5812;48.864;9.190;2022-10-31T06:20:04;8.30;99.90
11511;DHT22;5812;48.864;9.190;2022-10-31T06:22:30;8.30;99.90
11511;DHT22;5812;48.864;9.190;2022-10-31T06:24:55;8.30;99.90
11511;DHT22;5812;48.864;9.190;2022-10-31T06:27:21;8.40;99.90
11511;DHT22;5812;48.864;9.190;2022-10-31T06:29:47;8.50;99.90
11511;DHT22;5812;48.864;9.190;2022-10-31T06:32:13;8.50;99.90
11511;DHT22;5812;48.864;9.190;2022-10-31T06:34:39;8.40;99.90
11511;DHT22;5812;48.864;9.190;2022-10-31T06:37:06;8.50;99.90
11511;DHT22;5812;48.864;9.190;2022-10-31T06:39:33;8.50;99.90
11511;DHT22;5812;48.864;9.190;2022-10-31T06:41:58;8.50;99.90
11511;DHT22;5812;48.864;9.190;2022-10-31T06:44:24;8.60;99.90
11511;DHT22;5812;48.864;9.190;2022-10-31T06:46:49;8.70;99.90
11511;DHT22;5812;48.864;9.190;2022-10-31T06:49:15;8.70;99.90
11511;DHT22;5812;48.864;9.190;2022-10-31T06:51:41;9.00;99.90
11511;DHT22;5812;48.864;9.190;2022-10-31T06:54:06;8.90;99.90
11511;DHT22;5812;48.864;9.190;2022-10-31T06:56:32;9.30;99.90
11511;DHT22;5812;48.864;9.190;2022-10-31T06:58:58;9.20;99.90
11511;DHT22;5812;48.864;9.190;2022-10-31T07:01:23;9.20;99.90
11511;DHT22;5812;48.864;9.190;2022-10-31T07:03:49;9.20;99.90
11511;DHT22;5812;48.864;9.190;2022-10-31T07:06:14;9.20;99.90
11511;DHT22;5812;48.864;9.190;2022-10-31T07:08:40;9.40;99.90
11511;DHT22;5812;48.864;9.190;2022-10-31T07:11:05;9.60;99.90
11511;DHT22;5812;48.864;9.190;2022-10-31T07:13:31;9.60;99.90
11511;DHT22;5812;48.864;9.190;2022-10-31T07:16:02;9.60;99.90
11511;DHT22;5812;48.864;9.190;2022-10-31T07:18:28;9.90;99.90
11511;DHT22;5812;48.864;9.190;2022-10-31T07:20:54;9.80;99.90
11511;DHT22;5812;48.864;9.190;2022-10-31T07:23:19;9.90;99.90
11511;DHT22;5812;48.864;9.190;2022-10-31T07:25:45;10.00;99.90
11511;DHT22;5812;48.864;9.190;2022-10-31T07:28:11;10.00;99.90
11511;DHT22;5812;48.864;9.190;2022-10-31T07:30:37;10.00;99.90
11511;DHT22;5812;48.864;9.190;2022-10-31T07:33:03;10.10;99.90
11511;DHT22;5812;48.864;9.190;2022-10-31T07:35:29;10.30;99.90
11511;DHT22;5812;48.864;9.190;2022-10-31T07:37:55;10.30;99.90
11511;DHT22;5812;48.864;9.190;2022-10-31T07:40:22;10.40;99.90
11511;DHT22;5812;48.864;9.190;2022-10-31T07:42:52;10.40;99.90
11511;DHT22;5812;48.864;9.190;2022-10-31T07:45:19;10.60;99.90
11511;DHT22;5812;48.864;9.190;2022-10-31T07:47:46;10.70;99.90
11511;DHT22;5812;48.864;9.190;2022-10-31T07:50:18;10.80;99.90
11511;DHT22;5812;48.864;9.190;2022-10-31T07:52:44;10.90;99.90
11511;DHT22;5812;48.864;9.190;2022-10-31T07:55:10;11.10;99.90
11511;DHT22;5812;48.864;9.190;2022-10-31T07:57:36;11.20;99.90
11511;DHT22;5812;48.864;9.190;2022-10-31T08:00:07;11.20;99.90
11511;DHT22;5812;48.864;9.190;2022-10-31T08:02:33;11.30;99.90
11511;DHT22;5812;48.864;9.190;2022-10-31T08:04:59;11.40;99.90
11511;DHT22;5812;48.864;9.190;2022-10-31T08:07:27;11.50;99.90
11511;DHT22;5812;48.864;9.190;2022-10-31T08:09:53;11.60;99.90
11511;DHT22;5812;48.864;9.190;2022-10-31T08:12:18;11.70;99.90
11511;DHT22;5812;48.864;9.190;2022-10-31T08:14:44;11.80;99.90
11511;DHT22;5812;48.864;9.190;2022-10-31T08:17:10;11.90;99.90
11511;DHT22;5812;48.864;9.190;2022-10-31T08:19:36;11.90;99.90
11511;DHT22;5812;48.864;9.190;2022-10-31T08:22:01;12.00;99.90
11511;DHT22;5812;48.864;9.190;2022-10-31T08:24:27;12.20;99.90
11511;DHT22;5812;48.864;9.190;2022-10-31T08:26:52;12.20;99.90
11511;DHT22;5812;48.864;9.190;2022-10-31T08:29:18;12.10;99.90
11511;DHT22;5812;48.864;9.190;2022-10-31T08:31:43;12.30;99.90
11511;DHT22;5812;48.864;9.190;2022-10-31T08:34:09;12.30;99.90
11511;DHT22;5812;48.864;9.190;2022-10-31T08:36:34;12.20;99.90
11511;DHT22;5812;48.864;9.190;2022-10-31T08:39:01;12.30;99.90
11511;DHT22;5812;48.864;9.190;2022-10-31T08:41:26;12.30;99.90
11511;DHT22;5812;48.864;9.190;2022-10-31T08:43:52;12.50;99.90
11511;DHT22;5812;48.864;9.190;2022-10-31T08:46:18;12.60;99.90
11511;DHT22;5812;48.864;9.190;2022-10-31T08:48:43;12.80;99.90
11511;DHT22;5812;48.864;9.190;2022-10-31T08:51:09;12.70;99.90
11511;DHT22;5812;48.864;9.190;2022-10-31T08:53:35;12.70;99.90
11511;DHT22;5812;48.864;9.190;2022-10-31T08:56:01;12.70;99.90
11511;DHT22;5812;48.864;9.190;2022-10-31T08:58:27;12.80;99.90
11511;DHT22;5812;48.864;9.190;2022-10-31T09:00:54;12.90;99.90
11511;DHT22;5812;48.864;9.190;2022-10-31T09:03:26;13.20;99.90
11511;DHT22;5812;48.864;9.190;2022-10-31T09:05:56;13.50;99.90
11511;DHT22;5812;48.864;9.190;2022-10-31T09:08:22;13.70;90.80
11511;DHT22;5812;48.864;9.190;2022-10-31T09:10:48;13.50;98.20
11511;DHT22;5812;48.864;9.190;2022-10-31T09:13:16;13.50;60.40
11511;DHT22;5812;48.864;9.190;2022-10-31T09:15:43;13.50;66.70
11511;DHT22;5812;48.864;9.190;2022-10-31T09:18:11;13.70;99.90
11511;DHT22;5812;48.864;9.190;2022-10-31T09:20:39;13.90;1.00
11511;DHT22;5812;48.864;9.190;2022-10-31T09:23:08;13.70;1.00
11511;DHT22;5812;48.864;9.190;2022-10-31T09:25:35;13.80;22.20
11511;DHT22;5812;48.864;9.190;2022-10-31T09:28:02;14.20;92.10
11511;DHT22;5812;48.864;9.190;2022-10-31T09:30:31;14.40;1.00
11511;DHT22;5812;48.864;9.190;2022-10-31T09:33:02;14.40;1.00
11511;DHT22;5812;48.864;9.190;2022-10-31T09:35:28;14.80;1.00
11511;DHT22;5812;48.864;9.190;2022-10-31T09:38:01;14.90;1.00
11511;DHT22;5812;48.864;9.190;2022-10-31T09:40:38;15.10;1.00
11511;DHT22;5812;48.864;9.190;2022-10-31T09:43:21;15.10;1.00
11511;DHT22;5812;48.864;9.190;2022-10-31T09:52:00;14.80;1.00
11511;DHT22;5812;48.864;9.190;2022-10-31T09:54:28;15.10;1.00
11511;DHT22;5812;48.864;9.190;2022-10-31T09:56:57;14.90;1.00
11511;DHT22;5812;48.864;9.190;2022-10-31T09:59:37;15.10;1.00
11511;DHT22;5812;48.864;9.190;2022-10-31T10:02:18;15.40;1.00
11511;DHT22;5812;48.864;9.190;2022-10-31T10:05:04;15.30;1.00
11511;DHT22;5812;48.864;9.190;2022-10-31T10:10:55;15.10;1.00
11511;DHT22;5812;48.864;9.190;2022-10-31T10:24:48;16.30;99.90
11511;DHT22;5812;48.864;9.190;2022-10-31T10:30:46;15.90;99.90
11511;DHT22;5812;48.864;9.190;2022-10-31T10:33:35;16.00;99.90
11511;DHT22;5812;48.864;9.190;2022-10-31T10:38:57;16.10;1.00
11511;DHT22;5812;48.864;9.190;2022-10-31T10:41:27;16.40;99.90
11511;DHT22;5812;48.864;9.190;2022-10-31T10:43:55;16.50;99.90
11511;DHT22;5812;48.864;9.190;2022-10-31T10:49:34;16.40;99.90
11511;DHT22;5812;48.864;9.190;2022-10-31T10:52:22;16.20;99.90
11511;DHT22;5812;48.864;9.190;2022-10-31T10:57:50;16.90;99.90
11511;DHT22;5812;48.864;9.190;2022-10-31T11:02:45;16.50;99.90
11511;DHT22;5812;48.864;9.190;2022-10-31T11:08:02;16.30;99.90
11511;DHT22;5812;48.864;9.190;2022-10-31T11:10:28;16.40;99.90
11511;DHT22;5812;48.864;9.190;2022-10-31T11:13:21;17.00;99.90
11511;DHT22;5812;48.864;9.190;2022-10-31T11:16:06;16.70;99.90
11511;DHT22;5812;48.864;9.190;2022-10-31T11:18:36;17.00;99.90
11511;DHT22;5812;48.864;9.190;2022-10-31T11:21:03;17.10;99.90
11511;DHT22;5812;48.864;9.190;2022-10-31T11:23:30;17.40;99.90
11511;DHT22;5812;48.864;9.190;2022-10-31T11:26:01;17.50;9.70
11511;DHT22;5812;48.864;9.190;2022-10-31T11:28:31;17.30;99.90
11511;DHT22;5812;48.864;9.190;2022-10-31T11:31:12;17.60;1.00
11511;DHT22;5812;48.864;9.190;2022-10-31T11:33:47;17.80;36.80
11511;DHT22;5812;48.864;9.190;2022-10-31T11:38:44;18.30;1.00
11511;DHT22;5812;48.864;9.190;2022-10-31T11:43:50;18.00;1.00
11511;DHT22;5812;48.864;9.190;2022-10-31T11:46:25;17.80;1.00
11511;DHT22;5812;48.864;9.190;2022-10-31T11:48:53;17.90;1.00
11511;DHT22;5812;48.864;9.190;2022-10-31T11:51:24;17.90;1.00
11511;DHT22;5812;48.864;9.190;2022-10-31T11:53:52;18.20;1.00
11511;DHT22;5812;48.864;9.190;2022-10-31T11:56:19;18.00;1.00
11511;DHT22;5812;48.864;9.190;2022-10-31T11:58:59;18.00;1.00
11511;DHT22;5812;48.864;9.190;2022-10-31T12:01:30;18.00;1.00
11511;DHT22;5812;48.864;9.190;2022-10-31T12:04:10;18.10;1.00
11511;DHT22;5812;48.864;9.190;2022-10-31T12:06:41;18.20;99.90
11511;DHT22;5812;48.864;9.190;2022-10-31T12:09:21;17.90;99.90
11511;DHT22;5812;48.864;9.190;2022-10-31T12:17:36;17.70;1.00
11511;DHT22;5812;48.864;9.190;2022-10-31T12:22:55;18.00;1.00
11511;DHT22;5812;48.864;9.190;2022-10-31T12:25:50;18.20;1.00
11511;DHT22;5812;48.864;9.190;2022-10-31T12:31:12;19.00;99.90
11511;DHT22;5812;48.864;9.190;2022-10-31T12:45:33;18.40;99.90
11511;DHT22;5812;48.864;9.190;2022-10-31T12:50:55;18.30;99.90
11511;DHT22;5812;48.864;9.190;2022-10-31T12:53:37;18.00;99.90
11511;DHT22;5812;48.864;9.190;2022-10-31T13:01:27;17.90;1.00
11511;DHT22;5812;48.864;9.190;2022-10-31T13:06:40;17.70;1.00
11511;DHT22;5812;48.864;9.190;2022-10-31T13:09:20;17.60;1.00
11511;DHT22;5812;48.864;9.190;2022-10-31T13:11:58;17.60;1.00
11511;DHT22;5812;48.864;9.190;2022-10-31T13:16:52;17.50;1.00
11511;DHT22;5812;48.864;9.190;2022-10-31T13:19:39;17.50;1.00
11511;DHT22;5812;48.864;9.190;2022-10-31T13:22:25;17.40;1.00
11511;DHT22;5812;48.864;9.190;2022-10-31T13:27:30;17.30;1.00
11511;DHT22;5812;48.864;9.190;2022-10-31T13:30:17;17.40;1.00
11511;DHT22;5812;48.864;9.190;2022-10-31T13:33:03;17.30;86.40
11511;DHT22;5812;48.864;9.190;2022-10-31T13:38:35;17.40;1.00
11511;DHT22;5812;48.864;9.190;2022-10-31T13:46:45;17.50;83.50
11511;DHT22;5812;48.864;9.190;2022-10-31T13:49:40;17.80;1.00
11511;DHT22;5812;48.864;9.190;2022-10-31T13:54:46;18.20;99.90
11511;DHT22;5812;48.864;9.190;2022-10-31T13:57:22;18.60;99.90
11511;DHT22;5812;48.864;9.190;2022-10-31T13:59:58;18.50;99.90
11511;DHT22;5812;48.864;9.190;2022-10-31T14:02:30;18.50;99.90
11511;DHT22;5812;48.864;9.190;2022-10-31T14:05:06;18.40;99.90
11511;DHT22;5812;48.864;9.190;2022-10-31T14:07:43;18.30;1.00
11511;DHT22;5812;48.864;9.190;2022-10-31T14:13:05;17.70;35.60
11511;DHT22;5812;48.864;9.190;2022-10-31T14:15:32;17.50;99.90
11511;DHT22;5812;48.864;9.190;2022-10-31T14:18:03;17.40;1.00
11511;DHT22;5812;48.864;9.190;2022-10-31T14:23:31;17.50;1.00
11511;DHT22;5812;48.864;9.190;2022-10-31T14:28:50;17.30;98.40
11511;DHT22;5812;48.864;9.190;2022-10-31T14:31:37;17.20;99.90
11511;DHT22;5812;48.864;9.190;2022-10-31T14:50:49;16.70;1.00
11511;DHT22;5812;48.864;9.190;2022-10-31T14:53:33;16.80;1.00
11511;DHT22;5812;48.864;9.190;2022-10-31T14:55:59;16.80;1.00
11511;DHT22;5812;48.864;9.190;2022-10-31T14:58:40;16.60;1.00
11511;DHT22;5812;48.864;9.190;2022-10-31T15:01:18;16.70;1.00
11511;DHT22;5812;48.864;9.190;2022-10-31T15:03:46;16.80;99.90
11511;DHT22;5812;48.864;9.190;2022-10-31T15:06:14;16.70;99.90
11511;DHT22;5812;48.864;9.190;2022-10-31T15:08:48;16.50;1.00
11511;DHT22;5812;48.864;9.190;2022-10-31T15:11:16;16.30;1.00
11511;DHT22;5812;48.864;9.190;2022-10-31T15:13:47;16.30;1.00
11511;DHT22;5812;48.864;9.190;2022-10-31T15:16:15;16.30;1.00
11511;DHT22;5812;48.864;9.190;2022-10-31T15:18:54;16.40;1.00
11511;DHT22;5812;48.864;9.190;2022-10-31T15:21:22;16.40;1.00
11511;DHT22;5812;48.864;9.190;2022-10-31T15:23:51;16.20;1.00
11511;DHT22;5812;48.864;9.190;2022-10-31T15:26:21;15.90;1.00
11511;DHT22;5812;48.864;9.190;2022-10-31T15:29:19;15.80;24.00
11511;DHT22;5812;48.864;9.190;2022-10-31T15:34:24;15.20;99.90
11511;DHT22;5812;48.864;9.190;2022-10-31T15:36:51;15.30;95.20
11511;DHT22;5812;48.864;9.190;2022-10-31T15:39:17;15.30;94.90
11511;DHT22;5812;48.864;9.190;2022-10-31T15:41:53;15.10;99.90
11511;DHT22;5812;48.864;9.190;2022-10-31T15:44:26;15.00;99.90
11511;DHT22;5812;48.864;9.190;2022-10-31T15:47:03;14.90;99.90
11511;DHT22;5812;48.864;9.190;2022-10-31T15:49:31;14.80;99.90
11511;DHT22;5812;48.864;9.190;2022-10-31T15:52:03;14.70;99.90
11511;DHT22;5812;48.864;9.190;2022-10-31T15:54:30;14.50;99.90
11511;DHT22;5812;48.864;9.190;2022-10-31T15:56:56;14.30;99.90
11511;DHT22;5812;48.864;9.190;2022-10-31T15:59:25;14.10;99.90
11511;DHT22;5812;48.864;9.190;2022-10-31T16:02:07;14.10;99.90
11511;DHT22;5812;48.864;9.190;2022-10-31T16:04:34;14.10;99.90
11511;DHT22;5812;48.864;9.190;2022-10-31T16:07:02;14.00;99.90
11511;DHT22;5812;48.864;9.190;2022-10-31T16:09:28;14.00;99.90
11511;DHT22;5812;48.864;9.190;2022-10-31T16:11:56;13.90;99.90
11511;DHT22;5812;48.864;9.190;2022-10-31T16:14:28;14.00;99.90
11511;DHT22;5812;48.864;9.190;2022-10-31T16:16:57;13.80;99.90
11511;DHT22;5812;48.864;9.190;2022-10-31T16:19:27;13.70;99.90
11511;DHT22;5812;48.864;9.190;2022-10-31T16:22:03;13.60;99.90
11511;DHT22;5812;48.864;9.190;2022-10-31T16:24:31;13.60;99.90
11511;DHT22;5812;48.864;9.190;2022-10-31T16:27:06;13.50;99.90
11511;DHT22;5812;48.864;9.190;2022-10-31T16:29:46;13.50;99.90
11511;DHT22;5812;48.864;9.190;2022-10-31T16:32:28;13.40;99.90
11511;DHT22;5812;48.864;9.190;2022-10-31T16:35:45;13.20;99.90
11511;DHT22;5812;48.864;9.190;2022-10-31T16:37:46;13.10;99.90
11511;DHT22;5812;48.864;9.190;2022-10-31T16:40:12;13.00;99.90
11511;DHT22;5812;48.864;9.190;2022-10-31T16:42:39;12.90;99.90
11511;DHT22;5812;48.864;9.190;2022-10-31T16:45:06;13.00;99.90
11511;DHT22;5812;48.864;9.190;2022-10-31T16:47:32;13.00;99.90
11511;DHT22;5812;48.864;9.190;2022-10-31T16:49:58;13.00;99.90
11511;DHT22;5812;48.864;9.190;2022-10-31T16:52:26;13.10;99.90
11511;DHT22;5812;48.864;9.190;2022-10-31T16:54:52;12.90;99.90
11511;DHT22;5812;48.864;9.190;2022-10-31T16:57:23;12.70;99.90
11511;DHT22;5812;48.864;9.190;2022-10-31T16:59:52;12.70;99.90
11511;DHT22;5812;48.864;9.190;2022-10-31T17:02:19;12.50;99.90
11511;DHT22;5812;48.864;9.190;2022-10-31T17:04:45;12.40;99.90
11511;DHT22;5812;48.864;9.190;2022-10-31T17:07:10;12.50;99.90
11511;DHT22;5812;48.864;9.190;2022-10-31T17:09:36;12.50;99.90
11511;DHT22;5812;48.864;9.190;2022-10-31T17:12:02;12.50;99.90
11511;DHT22;5812;48.864;9.190;2022-10-31T17:14:29;12.60;99.90
11511;DHT22;5812;48.864;9.190;2022-10-31T17:16:54;12.60;99.90
11511;DHT22;5812;48.864;9.190;2022-10-31T17:19:20;12.80;99.90
11511;DHT22;5812;48.864;9.190;2022-10-31T17:21:45;12.70;99.90
11511;DHT22;5812;48.864;9.190;2022-10-31T17:24:12;12.50;99.90
11511;DHT22;5812;48.864;9.190;2022-10-31T17:26:38;12.40;99.90
11511;DHT22;5812;48.864;9.190;2022-10-31T17:29:04;12.40;99.90
11511;DHT22;5812;48.864;9.190;2022-10-31T17:31:31;12.40;99.90
11511;DHT22;5812;48.864;9.190;2022-10-31T17:33:58;12.30;99.90
11511;DHT22;5812;48.864;9.190;2022-10-31T17:36:24;12.30;99.90
11511;DHT22;5812;48.864;9.190;2022-10-31T17:38:50;12.30;99.90
11511;DHT22;5812;48.864;9.190;2022-10-31T17:41:16;12.20;99.90
11511;DHT22;5812;48.864;9.190;2022-10-31T17:43:41;12.20;99.90
11511;DHT22;5812;48.864;9.190;2022-10-31T17:46:07;12.10;99.90
11511;DHT22;5812;48.864;9.190;2022-10-31T17:48:34;12.10;99.90
11511;DHT22;5812;48.864;9.190;2022-10-31T17:51:04;12.10;99.90
11511;DHT22;5812;48.864;9.190;2022-10-31T17:53:32;12.20;99.90
11511;DHT22;5812;48.864;9.190;2022-10-31T17:56:06;12.30;99.90
11511;DHT22;5812;48.864;9.190;2022-10-31T17:58:33;12.10;99.90
11511;DHT22;5812;48.864;9.190;2022-10-31T18:00:59;12.00;99.90
11511;DHT22;5812;48.864;9.190;2022-10-31T18:03:26;11.80;99.90
11511;DHT22;5812;48.864;9.190;2022-10-31T18:05:57;11.70;99.90
11511;DHT22;5812;48.864;9.190;2022-10-31T18:08:27;11.80;99.90
11511;DHT22;5812;48.864;9.190;2022-10-31T18:10:54;11.70;99.90
11511;DHT22;5812;48.864;9.190;2022-10-31T18:13:20;11.70;99.90
11511;DHT22;5812;48.864;9.190;2022-10-31T18:15:45;11.70;99.90
11511;DHT22;5812;48.864;9.190;2022-10-31T18:18:11;11.60;99.90
11511;DHT22;5812;48.864;9.190;2022-10-31T18:20:36;11.50;99.90
11511;DHT22;5812;48.864;9.190;2022-10-31T18:23:02;11.60;99.90
11511;DHT22;5812;48.864;9.190;2022-10-31T18:25:28;11.50;99.90
11511;DHT22;5812;48.864;9.190;2022-10-31T18:27:53;11.50;99.90
11511;DHT22;5812;48.864;9.190;2022-10-31T18:30:19;11.50;99.90
11511;DHT22;5812;48.864;9.190;2022-10-31T18:32:47;11.40;99.90
11511;DHT22;5812;48.864;9.190;2022-10-31T18:35:13;11.40;99.90
11511;DHT22;5812;48.864;9.190;2022-10-31T18:37:38;11.20;99.90
11511;DHT22;5812;48.864;9.190;2022-10-31T18:40:04;11.30;99.90
11511;DHT22;5812;48.864;9.190;2022-10-31T18:42:30;11.40;99.90